createdAt,value
2023-02-01T00:02:15.068Z,17.20
2023-02-01T00:04:43.075Z,11.60
2023-02-01T00:07:14.202Z,16.00
2023-02-01T00:09:42.293Z,13.20
2023-02-01T00:12:10.172Z,13.80
2023-02-01T00:14:39.621Z,12.20
2023-02-01T00:17:08.884Z,11.80
2023-02-01T00:19:37.213Z,9.20
2023-02-01T00:22:05.182Z,11.20
2023-02-01T00:24:33.162Z,10.40
2023-02-01T00:27:01.091Z,9.60
2023-02-01T00:29:29.065Z,12.80
2023-02-01T00:31:57.059Z,8.80
2023-02-01T00:34:26.364Z,6.80
2023-02-01T00:36:54.360Z,9.40
2023-02-01T00:39:22.279Z,4.00
2023-02-01T00:41:50.226Z,4.00
2023-02-01T00:44:18.772Z,8.60
2023-02-01T00:46:46.813Z,9.80
2023-02-01T00:49:14.769Z,11.60
2023-02-01T00:51:44.090Z,10.80
2023-02-01T00:54:12.073Z,15.80
2023-02-01T00:56:40.034Z,14.20
2023-02-01T00:59:07.943Z,10.80
2023-02-01T01:01:35.872Z,17.60
2023-02-01T01:04:04.490Z,13.60
2023-02-01T01:06:33.103Z,15.20
2023-02-01T01:09:03.505Z,12.80
2023-02-01T01:11:32.143Z,15.20
2023-02-01T01:14:00.871Z,7.60
2023-02-01T01:16:29.676Z,14.60
2023-02-01T01:18:57.732Z,13.00
2023-02-01T01:21:25.665Z,15.60
2023-02-01T01:23:53.936Z,11.20
2023-02-01T01:26:24.656Z,16.20
2023-02-01T01:28:52.824Z,19.00
2023-02-01T01:31:21.733Z,15.60
2023-02-01T01:33:50.686Z,22.60
2023-02-01T01:36:18.718Z,22.40
2023-02-01T01:38:46.753Z,13.00
2023-02-01T01:41:16.274Z,16.60
2023-02-01T01:43:53.844Z,12.00
2023-02-01T01:46:22.214Z,16.00
2023-02-01T01:48:51.817Z,15.20
2023-02-01T01:51:20.393Z,12.60
2023-02-01T01:53:52.024Z,12.00
2023-02-01T01:56:19.961Z,4.80
2023-02-01T01:58:47.879Z,7.40
2023-02-01T02:01:17.221Z,5.60
2023-02-01T02:03:45.406Z,8.60
2023-02-01T02:06:15.745Z,9.00
2023-02-01T02:08:43.993Z,7.80
2023-02-01T02:11:13.472Z,6.60
2023-02-01T02:13:42.336Z,7.00
2023-02-01T02:16:27.221Z,6.60
2023-02-01T02:18:59.993Z,4.80
2023-02-01T02:21:37.622Z,9.40
2023-02-01T02:24:49.889Z,5.20
2023-02-01T02:27:25.784Z,6.40
2023-02-01T02:30:35.232Z,6.00
2023-02-01T02:33:20.529Z,4.80
2023-02-01T02:35:49.203Z,3.20
2023-02-01T02:38:20.487Z,4.80
2023-02-01T02:40:51.015Z,3.40
2023-02-01T02:43:40.398Z,3.00
2023-02-01T02:46:27.904Z,5.20
2023-02-01T02:49:01.565Z,1.20
2023-02-01T02:51:48.435Z,1.00
2023-02-01T02:54:34.755Z,3.00
2023-02-01T02:57:20.760Z,3.00
2023-02-01T03:00:05.977Z,0.80
2023-02-01T03:02:51.742Z,4.40
2023-02-01T03:05:21.766Z,3.00
2023-02-01T03:07:57.755Z,1.00
2023-02-01T03:10:29.009Z,2.20
2023-02-01T03:12:59.837Z,1.00
2023-02-01T03:15:31.776Z,3.20
2023-02-01T03:17:59.805Z,2.60
2023-02-01T03:20:29.065Z,1.00
2023-02-01T03:22:57.218Z,1.00
2023-02-01T03:25:26.908Z,0.00
2023-02-01T03:27:56.555Z,6.20
2023-02-01T03:30:26.899Z,1.00
2023-02-01T03:33:00.687Z,3.00
2023-02-01T03:35:32.676Z,3.80
2023-02-01T03:38:04.587Z,5.60
2023-02-01T03:40:33.630Z,3.20
2023-02-01T03:43:01.580Z,1.00
2023-02-01T03:45:30.863Z,2.80
2023-02-01T03:47:59.643Z,2.80
2023-02-01T03:50:27.538Z,3.00
2023-02-01T03:52:58.720Z,2.20
2023-02-01T03:55:28.319Z,3.00
2023-02-01T03:57:59.472Z,2.60
2023-02-01T04:00:27.977Z,3.00
2023-02-01T04:02:56.167Z,3.00
2023-02-01T04:05:24.188Z,3.00
2023-02-01T04:07:52.173Z,3.00
2023-02-01T04:10:22.275Z,4.40
2023-02-01T04:12:50.364Z,2.20
2023-02-01T04:15:18.375Z,6.20
2023-02-01T04:17:46.617Z,4.80
2023-02-01T04:20:14.565Z,2.20
2023-02-01T04:22:42.456Z,4.60
2023-02-01T04:25:11.651Z,6.00
2023-02-01T04:30:10.841Z,3.60
2023-02-01T04:32:38.848Z,1.40
2023-02-01T04:35:07.526Z,1.20
2023-02-01T04:37:35.481Z,3.00
2023-02-01T04:40:04.724Z,3.60
2023-02-01T04:42:32.889Z,7.00
2023-02-01T04:45:02.309Z,4.60
2023-02-01T04:47:30.548Z,2.60
2023-02-01T04:49:58.469Z,3.60
2023-02-01T04:52:26.411Z,2.60
2023-02-01T04:54:59.404Z,3.00
2023-02-01T04:57:27.481Z,6.40
2023-02-01T04:59:55.429Z,6.00
2023-02-01T05:02:25.408Z,4.80
2023-02-01T05:04:53.397Z,4.00
2023-02-01T05:07:21.480Z,3.80
2023-02-01T05:09:49.534Z,1.60
2023-02-01T05:12:34.823Z,3.20
2023-02-01T05:15:03.136Z,1.40
2023-02-01T05:17:32.628Z,1.00
2023-02-01T05:20:00.559Z,4.40
2023-02-01T05:22:28.817Z,4.40
2023-02-01T05:24:56.825Z,9.60
2023-02-01T05:27:24.746Z,3.80
2023-02-01T05:29:52.959Z,3.20
2023-02-01T05:32:22.825Z,5.60
2023-02-01T05:34:52.734Z,4.00
2023-02-01T05:37:21.280Z,3.40
2023-02-01T05:39:49.433Z,6.20
2023-02-01T05:42:17.680Z,6.00
2023-02-01T05:44:45.836Z,8.20
2023-02-01T05:47:14.124Z,3.80
2023-02-01T05:49:42.051Z,3.20
2023-02-01T05:52:11.366Z,7.40
2023-02-01T05:54:39.292Z,6.00
2023-02-01T05:57:07.352Z,1.00
2023-02-01T05:59:35.323Z,2.20
2023-02-01T06:02:03.299Z,4.80
2023-02-01T06:04:31.249Z,4.00
2023-02-01T06:06:59.229Z,6.00
2023-02-01T06:09:29.333Z,4.80
2023-02-01T06:11:57.612Z,5.20
2023-02-01T06:14:26.073Z,3.40
2023-02-01T06:17:00.273Z,4.20
2023-02-01T06:19:29.111Z,4.00
2023-02-01T06:21:57.074Z,6.40
2023-02-01T06:24:29.883Z,3.00
2023-02-01T06:26:59.726Z,6.00
2023-02-01T06:29:27.956Z,6.00
2023-02-01T06:31:55.908Z,5.20
2023-02-01T06:34:24.825Z,1.60
2023-02-01T06:36:52.822Z,3.00
2023-02-01T06:39:21.486Z,5.00
2023-02-01T06:41:49.643Z,6.00
2023-02-01T06:44:21.937Z,4.00
2023-02-01T06:46:49.915Z,4.20
2023-02-01T06:49:18.137Z,4.00
2023-02-01T06:51:46.154Z,5.20
2023-02-01T06:54:18.188Z,5.20
2023-02-01T06:57:00.126Z,8.40
2023-02-01T06:59:35.906Z,7.20
2023-02-01T07:02:04.099Z,4.00
2023-02-01T07:04:32.312Z,7.00
2023-02-01T07:07:00.255Z,7.80
2023-02-01T07:09:28.209Z,4.40
2023-02-01T07:11:56.136Z,3.00
2023-02-01T07:14:24.051Z,8.80
2023-02-01T07:16:53.404Z,0.20
2023-02-01T07:19:21.709Z,7.00
2023-02-01T07:21:49.692Z,7.40
2023-02-01T07:24:17.681Z,5.80
2023-02-01T07:26:45.829Z,6.40
2023-02-01T07:29:13.782Z,3.60
2023-02-01T07:31:43.606Z,6.20
2023-02-01T07:34:13.187Z,6.80
2023-02-01T07:36:41.462Z,3.60
2023-02-01T07:39:09.445Z,2.60
2023-02-01T07:41:37.423Z,3.00
2023-02-01T07:44:05.473Z,1.00
2023-02-01T07:46:33.800Z,4.40
2023-02-01T07:49:04.597Z,3.20
2023-02-01T07:51:37.510Z,3.20
2023-02-01T07:54:27.209Z,3.60
2023-02-01T07:57:11.947Z,3.40
2023-02-01T08:00:01.214Z,7.40
2023-02-01T08:02:28.188Z,10.20
2023-02-01T08:04:56.115Z,3.80
2023-02-01T08:07:26.024Z,4.60
2023-02-01T08:09:54.010Z,5.60
2023-02-01T08:12:21.927Z,6.40
2023-02-01T08:14:49.924Z,4.00
2023-02-01T08:17:17.960Z,5.20
2023-02-01T08:19:46.198Z,5.60
2023-02-01T08:22:14.268Z,4.00
2023-02-01T08:24:43.897Z,3.00
2023-02-01T08:27:13.356Z,3.60
2023-02-01T08:29:41.404Z,4.00
2023-02-01T08:32:09.411Z,9.20
2023-02-01T08:34:37.379Z,5.20
2023-02-01T08:37:05.651Z,7.00
2023-02-01T08:39:33.628Z,6.40
2023-02-01T08:42:35.022Z,3.60
2023-02-01T08:45:03.321Z,4.80
2023-02-01T08:47:31.280Z,9.40
2023-02-01T08:49:59.332Z,8.80
2023-02-01T08:52:27.205Z,6.20
2023-02-01T08:54:55.236Z,6.20
2023-02-01T08:57:24.587Z,6.80
2023-02-01T08:59:52.678Z,6.60
2023-02-01T09:02:21.090Z,5.00
2023-02-01T09:04:49.197Z,5.20
2023-02-01T09:07:17.824Z,0.20
2023-02-01T09:09:46.209Z,11.20
2023-02-01T09:12:14.127Z,6.20
2023-02-01T09:14:43.492Z,4.40
2023-02-01T09:17:11.761Z,3.80
2023-02-01T09:19:42.156Z,7.60
2023-02-01T09:22:11.453Z,6.60
2023-02-01T09:24:39.320Z,7.80
2023-02-01T09:27:07.288Z,7.40
2023-02-01T09:29:36.422Z,3.00
2023-02-01T09:32:07.547Z,7.40
2023-02-01T09:34:35.553Z,3.80
2023-02-01T09:37:03.696Z,4.40
2023-02-01T09:39:32.224Z,9.00
2023-02-01T09:42:05.013Z,12.40
2023-02-01T09:44:44.867Z,8.80
2023-02-01T09:47:18.306Z,4.40
2023-02-01T09:49:53.793Z,5.60
2023-02-01T09:52:25.283Z,7.20
2023-02-01T09:54:59.355Z,8.00
2023-02-01T09:57:38.283Z,9.00
2023-02-01T10:00:16.824Z,10.80
2023-02-01T10:02:46.191Z,4.60
2023-02-01T10:05:15.953Z,9.40
2023-02-01T10:07:47.376Z,8.60
2023-02-01T10:10:17.283Z,6.20
2023-02-01T10:13:10.065Z,8.20
2023-02-01T10:15:54.089Z,9.00
2023-02-01T10:18:54.383Z,9.60
2023-02-01T10:21:30.305Z,6.20
2023-02-01T10:24:17.353Z,9.00
2023-02-01T10:26:47.511Z,5.60
2023-02-01T10:29:18.053Z,8.40
2023-02-01T10:31:46.134Z,7.00
2023-02-01T10:34:20.505Z,6.20
2023-02-01T10:36:53.483Z,9.60
2023-02-01T10:39:21.782Z,8.20
2023-02-01T10:41:49.827Z,3.40
2023-02-01T10:44:19.169Z,4.40
2023-02-01T10:46:47.214Z,6.80
2023-02-01T10:49:18.977Z,8.20
2023-02-01T10:51:50.364Z,6.60
2023-02-01T10:54:21.456Z,10.40
2023-02-01T10:56:49.951Z,9.00
2023-02-01T10:59:20.080Z,13.00
2023-02-01T11:01:49.275Z,8.20
2023-02-01T11:04:18.866Z,8.20
2023-02-01T11:06:51.243Z,5.60
2023-02-01T11:09:26.818Z,10.20
2023-02-01T11:12:01.458Z,8.60
2023-02-01T11:14:40.185Z,12.20
2023-02-01T11:17:27.307Z,11.40
2023-02-01T11:20:07.188Z,5.80
2023-02-01T11:22:35.361Z,8.40
2023-02-01T11:25:04.007Z,7.00
2023-02-01T11:27:33.364Z,6.00
2023-02-01T11:30:03.218Z,8.60
2023-02-01T11:32:31.282Z,5.20
2023-02-01T11:35:03.105Z,7.00
2023-02-01T11:37:32.700Z,6.00
2023-02-01T11:40:01.483Z,4.00
2023-02-01T11:42:29.985Z,3.00
2023-02-01T11:45:21.835Z,6.80
2023-02-01T11:47:50.593Z,7.20
2023-02-01T11:50:22.633Z,4.00
2023-02-01T11:53:17.214Z,8.80
2023-02-01T11:55:55.055Z,6.60
2023-02-01T11:58:38.443Z,10.00
2023-02-01T12:01:15.541Z,6.60
2023-02-01T12:04:15.207Z,9.40
2023-02-01T12:06:50.710Z,8.60
2023-02-01T12:09:34.346Z,8.60
2023-02-01T12:12:08.732Z,10.00
2023-02-01T12:14:49.475Z,5.60
2023-02-01T12:17:29.181Z,9.80
2023-02-01T12:20:06.143Z,6.60
2023-02-01T12:22:44.213Z,9.00
2023-02-01T12:25:23.109Z,3.00
2023-02-01T12:28:16.610Z,11.20
2023-02-01T12:31:15.592Z,6.40
2023-02-01T12:33:53.088Z,6.00
2023-02-01T12:36:23.981Z,8.60
2023-02-01T12:38:57.647Z,8.20
2023-02-01T12:41:36.905Z,5.60
2023-02-01T12:44:08.753Z,5.20
2023-02-01T12:46:39.571Z,14.80
2023-02-01T12:49:09.261Z,10.80
2023-02-01T12:51:39.048Z,7.80
2023-02-01T12:54:12.320Z,11.20
2023-02-01T12:56:44.732Z,5.60
2023-02-01T12:59:20.178Z,4.80
2023-02-01T13:01:53.444Z,6.40
2023-02-01T13:04:23.361Z,7.20
2023-02-01T13:06:57.808Z,7.00
2023-02-01T13:09:37.804Z,4.00
2023-02-01T13:12:08.782Z,17.20
2023-02-01T13:14:40.121Z,9.40
2023-02-01T13:17:25.738Z,0.20
2023-02-01T13:19:55.687Z,7.60
2023-02-01T13:22:26.489Z,7.80
2023-02-01T13:24:57.163Z,9.00
2023-02-01T13:27:25.352Z,6.20
2023-02-01T13:30:01.360Z,6.60
2023-02-01T13:33:50.789Z,7.80
2023-02-01T13:36:04.341Z,10.00
2023-02-01T13:38:51.959Z,6.00
2023-02-01T13:41:28.916Z,6.40
2023-02-01T13:43:58.013Z,7.00
2023-02-01T13:46:27.733Z,7.40
2023-02-01T13:49:00.379Z,4.00
2023-02-01T13:51:36.268Z,2.20
2023-02-01T13:54:07.668Z,5.60
2023-02-01T13:56:51.030Z,4.00
2023-02-01T13:59:39.044Z,4.80
2023-02-01T14:02:40.376Z,6.80
2023-02-01T14:05:09.849Z,4.40
2023-02-01T14:07:37.765Z,3.00
2023-02-01T14:10:38.861Z,3.00
2023-02-01T14:13:15.004Z,6.20
2023-02-01T14:15:43.332Z,6.40
2023-02-01T14:18:46.726Z,4.40
2023-02-01T14:21:23.184Z,3.40
2023-02-01T14:23:58.512Z,9.60
2023-02-01T14:26:27.562Z,6.00
2023-02-01T14:28:59.933Z,7.40
2023-02-01T14:31:42.129Z,6.00
2023-02-01T14:34:19.215Z,1.80
2023-02-01T14:36:53.221Z,5.80
2023-02-01T14:39:29.297Z,5.20
2023-02-01T14:41:59.783Z,1.00
2023-02-01T14:44:36.938Z,6.20
2023-02-01T14:47:12.714Z,3.60
2023-02-01T14:49:45.267Z,4.20
2023-02-01T14:52:19.106Z,3.00
2023-02-01T14:54:48.425Z,4.80
2023-02-01T14:57:18.342Z,8.40
2023-02-01T14:59:48.699Z,5.20
2023-02-01T15:02:23.787Z,6.00
2023-02-01T15:04:56.120Z,5.60
2023-02-01T15:07:25.133Z,6.20
2023-02-01T15:09:53.211Z,4.00
2023-02-01T15:12:27.965Z,0.80
2023-02-01T15:15:13.295Z,3.80
2023-02-01T15:17:41.870Z,1.00
2023-02-01T15:20:28.422Z,4.00
2023-02-01T15:23:02.403Z,1.00
2023-02-01T15:25:32.121Z,2.20
2023-02-01T15:28:00.113Z,4.80
2023-02-01T15:30:30.994Z,3.60
2023-02-01T15:33:09.029Z,5.20
2023-02-01T15:35:44.226Z,2.60
2023-02-01T15:38:34.660Z,3.80
2023-02-01T15:41:03.993Z,5.00
2023-02-01T15:43:33.413Z,3.40
2023-02-01T15:46:04.330Z,1.00
2023-02-01T15:48:36.794Z,1.80
2023-02-01T15:51:05.036Z,3.00
2023-02-01T15:53:33.861Z,4.00
2023-02-01T15:56:03.454Z,4.80
2023-02-01T15:58:32.861Z,4.00
2023-02-01T16:01:02.720Z,3.20
2023-02-01T16:03:37.894Z,3.20
2023-02-01T16:06:07.225Z,2.20
2023-02-01T16:08:35.781Z,4.00
2023-02-01T16:11:23.316Z,3.40
2023-02-01T16:13:55.001Z,2.40
2023-02-01T16:16:27.442Z,6.60
2023-02-01T16:19:02.515Z,3.40
2023-02-01T16:21:36.319Z,4.40
2023-02-01T16:24:05.523Z,6.00
2023-02-01T16:26:36.394Z,2.60
2023-02-01T16:29:07.214Z,2.60
2023-02-01T16:31:37.394Z,1.00
2023-02-01T16:34:07.399Z,3.40
2023-02-01T16:36:35.570Z,7.00
2023-02-01T16:39:04.607Z,3.00
2023-02-01T16:41:32.918Z,3.80
2023-02-01T16:44:04.241Z,4.00
2023-02-01T16:46:34.553Z,6.40
2023-02-01T16:49:03.472Z,4.40
2023-02-01T16:51:33.883Z,3.80
2023-02-01T16:54:01.817Z,5.40
2023-02-01T16:56:32.262Z,4.40
2023-02-01T16:59:00.505Z,4.00
2023-02-01T17:01:28.573Z,8.60
2023-02-01T17:03:58.106Z,7.00
2023-02-01T17:06:26.915Z,4.00
2023-02-01T17:08:58.941Z,10.00
2023-02-01T17:11:27.310Z,3.40
2023-02-01T17:13:57.017Z,4.80
2023-02-01T17:16:34.287Z,6.00
2023-02-01T17:19:05.503Z,6.40
2023-02-01T17:21:39.648Z,8.00
2023-02-01T17:24:09.112Z,3.80
2023-02-01T17:26:38.788Z,5.20
2023-02-01T17:29:06.954Z,7.00
2023-02-01T17:31:35.423Z,4.00
2023-02-01T17:34:03.413Z,4.60
2023-02-01T17:36:31.584Z,3.20
2023-02-01T17:39:06.202Z,3.60
2023-02-01T17:41:36.255Z,0.00
2023-02-01T17:44:04.384Z,3.20
2023-02-01T17:46:32.541Z,5.60
2023-02-01T17:49:01.522Z,5.20
2023-02-01T17:51:29.569Z,4.20
2023-02-01T17:53:57.492Z,3.00
2023-02-01T17:56:26.762Z,4.00
2023-02-01T17:58:56.996Z,7.00
2023-02-01T18:01:25.658Z,7.40
2023-02-01T18:03:53.618Z,5.40
2023-02-01T18:06:27.405Z,2.60
2023-02-01T18:08:55.394Z,4.80
2023-02-01T18:11:24.000Z,5.60
2023-02-01T18:13:53.087Z,7.00
2023-02-01T18:16:23.356Z,4.00
2023-02-01T18:18:51.292Z,5.20
2023-02-01T18:21:19.858Z,6.80
2023-02-01T18:23:48.225Z,3.40
2023-02-01T18:26:17.400Z,5.20
2023-02-01T18:28:45.376Z,4.80
2023-02-01T18:31:22.286Z,2.60
2023-02-01T18:33:51.747Z,3.40
2023-02-01T18:36:19.735Z,6.20
2023-02-01T18:38:48.131Z,4.00
2023-02-01T18:41:16.930Z,3.60
2023-02-01T18:43:44.876Z,2.20
2023-02-01T18:46:13.097Z,7.00
2023-02-01T18:48:41.558Z,5.80
2023-02-01T18:51:11.861Z,3.40
2023-02-01T18:53:39.861Z,4.80
2023-02-01T18:56:08.901Z,7.20
2023-02-01T18:58:37.130Z,2.60
2023-02-01T19:01:07.729Z,6.40
2023-02-01T19:03:42.767Z,6.00
2023-02-01T19:06:15.522Z,5.40
2023-02-01T19:08:45.698Z,6.00
2023-02-01T19:11:13.611Z,6.00
2023-02-01T19:13:41.846Z,6.40
2023-02-01T19:16:10.191Z,7.00
2023-02-01T19:18:38.859Z,4.40
2023-02-01T19:21:07.662Z,6.00
2023-02-01T19:23:37.239Z,6.20
2023-02-01T19:26:05.332Z,7.00
2023-02-01T19:28:33.194Z,4.00
2023-02-01T19:31:04.636Z,5.20
2023-02-01T19:33:32.765Z,6.00
2023-02-01T19:36:01.367Z,3.20
2023-02-01T19:38:29.251Z,4.00
2023-02-01T19:40:58.878Z,4.00
2023-02-01T19:43:26.810Z,6.40
2023-02-01T19:45:54.777Z,4.00
2023-02-01T19:48:22.768Z,7.20
2023-02-01T19:50:50.657Z,6.80
2023-02-01T19:53:19.396Z,8.80
2023-02-01T19:55:47.847Z,4.00
2023-02-01T19:58:17.221Z,3.20
2023-02-01T20:00:44.563Z,3.20
2023-02-01T20:03:12.505Z,6.60
2023-02-01T20:05:40.436Z,2.80
2023-02-01T20:08:08.337Z,3.40
2023-02-01T20:10:36.311Z,3.80
2023-02-01T20:13:04.243Z,6.00
2023-02-01T20:15:33.890Z,6.80
2023-02-01T20:18:02.669Z,11.00
2023-02-01T20:20:30.672Z,8.80
2023-02-01T20:22:58.642Z,5.20
2023-02-01T20:25:26.585Z,6.20
2023-02-01T20:27:55.450Z,9.60
2023-02-01T20:30:23.662Z,9.40
2023-02-01T20:32:53.289Z,6.00
2023-02-01T20:35:22.082Z,7.00
2023-02-01T20:37:51.797Z,6.20
2023-02-01T20:40:20.140Z,9.20
2023-02-01T20:42:48.432Z,2.20
2023-02-01T20:45:16.712Z,0.00
2023-02-01T20:47:44.672Z,0.00
2023-02-01T20:50:14.340Z,0.00
2023-02-01T20:52:42.284Z,0.00
2023-02-01T20:55:10.599Z,0.00
2023-02-01T20:57:38.487Z,0.00
2023-02-01T21:00:10.106Z,0.20
2023-02-01T21:02:38.028Z,0.00
2023-02-01T21:05:06.599Z,0.00
2023-02-01T21:07:35.884Z,0.00
2023-02-01T21:10:04.097Z,3.00
2023-02-01T21:12:31.996Z,1.00
2023-02-01T21:15:00.233Z,0.40
2023-02-01T21:17:28.583Z,1.00
2023-02-01T21:19:56.541Z,2.60
2023-02-01T21:22:24.468Z,0.80
2023-02-01T21:24:53.776Z,3.00
2023-02-01T21:27:21.959Z,1.00
2023-02-01T21:29:49.862Z,3.80
2023-02-01T21:32:17.959Z,3.00
2023-02-01T21:34:45.823Z,5.60
2023-02-01T21:37:13.973Z,4.40
2023-02-01T21:39:42.002Z,4.80
2023-02-01T21:42:13.961Z,8.00
2023-02-01T21:44:42.731Z,6.00
2023-02-01T21:47:11.067Z,6.00
2023-02-01T21:49:39.321Z,3.40
2023-02-01T21:52:07.777Z,9.20
2023-02-01T21:54:35.664Z,6.00
2023-02-01T21:57:03.724Z,14.20
2023-02-01T21:59:33.080Z,14.20
2023-02-01T22:02:01.037Z,12.60
2023-02-01T22:04:29.244Z,13.80
2023-02-01T22:06:57.202Z,10.40
2023-02-01T22:09:25.992Z,11.00
2023-02-01T22:11:54.956Z,13.20
2023-02-01T22:14:23.051Z,7.80
2023-02-01T22:16:52.430Z,7.00
2023-02-01T22:19:20.504Z,7.80
2023-02-01T22:21:49.031Z,10.00
2023-02-01T22:24:18.228Z,6.00
2023-02-01T22:26:46.221Z,8.60
2023-02-01T22:29:14.763Z,9.40
2023-02-01T22:31:43.078Z,6.60
2023-02-01T22:34:13.067Z,13.00
2023-02-01T22:36:41.105Z,8.40
2023-02-01T22:39:09.055Z,5.60
2023-02-01T22:41:36.986Z,3.60
2023-02-01T22:44:05.363Z,6.00
2023-02-01T22:46:33.440Z,6.20
2023-02-01T22:49:01.428Z,3.00
2023-02-01T22:51:32.037Z,4.00
2023-02-01T22:54:00.238Z,4.80
2023-02-01T22:56:30.273Z,6.00
2023-02-01T22:58:59.107Z,4.00
2023-02-01T23:01:27.019Z,1.80
2023-02-01T23:03:57.531Z,3.00
2023-02-01T23:06:25.900Z,4.40
2023-02-01T23:08:57.443Z,3.20
2023-02-01T23:11:25.678Z,3.60
2023-02-01T23:13:53.555Z,2.20
2023-02-01T23:16:21.880Z,6.60
2023-02-01T23:18:49.859Z,1.80
2023-02-01T23:21:20.502Z,5.20
2023-02-01T23:23:48.760Z,6.20
2023-02-01T23:26:18.234Z,3.40
2023-02-01T23:28:46.230Z,4.00
2023-02-01T23:31:15.110Z,6.40
2023-02-01T23:33:45.388Z,6.00
2023-02-01T23:36:16.005Z,6.00
2023-02-01T23:38:44.094Z,3.20
2023-02-01T23:41:12.413Z,3.00
2023-02-01T23:44:00.129Z,3.00
2023-02-01T23:46:30.963Z,1.40
2023-02-01T23:48:59.474Z,2.60
2023-02-01T23:51:27.470Z,2.60
2023-02-01T23:53:55.396Z,1.80
2023-02-01T23:56:24.877Z,3.00
2023-02-01T23:58:54.552Z,3.20
